createdAt,value
2023-03-26T00:00:34.413Z,989.74
2023-03-26T00:01:34.401Z,989.73
2023-03-26T00:02:34.434Z,989.73
2023-03-26T00:03:34.348Z,989.65
2023-03-26T00:04:34.404Z,989.71
2023-03-26T00:05:34.447Z,989.71
2023-03-26T00:06:34.309Z,989.73
2023-03-26T00:07:34.303Z,989.69
2023-03-26T00:08:34.381Z,989.61
2023-03-26T00:09:34.291Z,989.69
2023-03-26T00:10:34.308Z,989.75
2023-03-26T00:11:34.260Z,989.73
2023-03-26T00:12:34.258Z,989.78
2023-03-26T00:13:34.234Z,989.80
2023-03-26T00:14:34.267Z,989.80
2023-03-26T00:15:34.195Z,989.76
2023-03-26T00:16:34.211Z,989.80
2023-03-26T00:17:34.231Z,989.79
2023-03-26T00:18:34.159Z,989.79
2023-03-26T00:19:34.171Z,989.87
2023-03-26T00:20:34.193Z,989.80
2023-03-26T00:21:34.210Z,989.81
2023-03-26T00:22:34.209Z,989.79
2023-03-26T00:23:34.109Z,989.82
2023-03-26T00:24:34.086Z,989.85
2023-03-26T00:25:34.114Z,989.82
2023-03-26T00:26:34.111Z,989.75
2023-03-26T00:27:34.104Z,989.82
2023-03-26T00:28:34.062Z,989.87
2023-03-26T00:29:34.045Z,989.88
2023-03-26T00:30:34.060Z,989.83
2023-03-26T00:31:34.033Z,989.82
2023-03-26T00:32:34.065Z,989.84
2023-03-26T00:33:34.078Z,989.78
2023-03-26T00:34:34.021Z,989.81
2023-03-26T00:35:34.018Z,989.90
2023-03-26T00:36:33.967Z,989.79
2023-03-26T00:37:33.944Z,989.86
2023-03-26T00:38:33.982Z,989.82
2023-03-26T00:39:33.952Z,989.84
2023-03-26T00:40:33.919Z,989.85
2023-03-26T00:41:33.924Z,989.79
2023-03-26T00:42:33.906Z,989.85
2023-03-26T00:43:33.917Z,989.83
2023-03-26T00:44:33.878Z,989.74
2023-03-26T00:45:33.856Z,989.79
2023-03-26T00:46:33.882Z,989.75
2023-03-26T00:47:33.905Z,989.78
2023-03-26T00:48:44.464Z,989.73
2023-03-26T00:49:34.834Z,989.77
2023-03-26T00:50:33.799Z,989.77
2023-03-26T00:51:33.824Z,989.69
2023-03-26T00:52:33.810Z,989.71
2023-03-26T00:53:33.841Z,989.73
2023-03-26T00:54:33.753Z,989.67
2023-03-26T00:55:33.750Z,989.73
2023-03-26T00:56:33.756Z,989.69
2023-03-26T00:57:35.817Z,989.70
2023-03-26T00:58:33.699Z,989.67
2023-03-26T00:59:33.747Z,989.70
2023-03-26T01:00:33.722Z,989.69
2023-03-26T01:01:33.744Z,989.68
2023-03-26T01:02:33.796Z,989.66
2023-03-26T01:03:33.817Z,989.66
2023-03-26T01:04:33.885Z,989.66
2023-03-26T01:05:33.618Z,989.70
2023-03-26T01:06:33.622Z,989.65
2023-03-26T01:07:33.622Z,989.60
2023-03-26T01:08:33.651Z,989.62
2023-03-26T01:09:33.616Z,989.65
2023-03-26T01:10:33.574Z,989.66
2023-03-26T01:11:33.583Z,989.65
2023-03-26T01:12:33.564Z,989.70
2023-03-26T01:13:33.542Z,989.64
2023-03-26T01:14:33.578Z,989.67
2023-03-26T01:15:33.571Z,989.66
2023-03-26T01:16:33.515Z,989.67
2023-03-26T01:17:33.539Z,989.71
2023-03-26T01:18:33.473Z,989.74
2023-03-26T01:19:33.512Z,989.73
2023-03-26T01:20:33.474Z,989.71
2023-03-26T01:21:33.453Z,989.68
2023-03-26T01:22:33.449Z,989.73
2023-03-26T01:23:33.440Z,989.76
2023-03-26T01:24:33.411Z,989.76
2023-03-26T01:25:33.442Z,989.79
2023-03-26T01:26:33.410Z,989.75
2023-03-26T01:27:33.428Z,989.73
2023-03-26T01:28:33.390Z,989.72
2023-03-26T01:29:33.430Z,989.70
2023-03-26T01:30:33.350Z,989.65
2023-03-26T01:31:33.360Z,989.69
2023-03-26T01:32:33.494Z,989.68
2023-03-26T01:33:33.390Z,989.64
2023-03-26T01:34:33.309Z,989.60
2023-03-26T01:35:33.370Z,989.64
2023-03-26T01:36:33.300Z,989.60
2023-03-26T01:37:33.249Z,989.58
2023-03-26T01:38:33.258Z,989.61
2023-03-26T01:39:33.266Z,989.62
2023-03-26T01:40:33.383Z,989.63
2023-03-26T01:41:33.233Z,989.63
2023-03-26T01:42:33.235Z,989.62
2023-03-26T01:43:33.203Z,989.64
2023-03-26T01:44:33.209Z,989.61
2023-03-26T01:45:33.173Z,989.63
2023-03-26T01:46:33.206Z,989.60
2023-03-26T01:47:33.233Z,989.64
2023-03-26T01:48:33.165Z,989.55
2023-03-26T01:49:33.203Z,989.52
2023-03-26T01:50:33.169Z,989.56
2023-03-26T01:51:33.111Z,989.52
2023-03-26T01:52:33.101Z,989.49
2023-03-26T01:53:33.130Z,989.49
2023-03-26T01:54:33.172Z,989.45
2023-03-26T01:55:33.113Z,989.47
2023-03-26T01:56:33.105Z,989.48
2023-03-26T01:57:33.037Z,989.47
2023-03-26T01:58:33.016Z,989.43
2023-03-26T01:59:33.052Z,989.48
2023-03-26T02:00:33.000Z,989.48
2023-03-26T02:01:33.091Z,989.44
2023-03-26T02:02:33.204Z,989.46
2023-03-26T02:03:32.994Z,989.42
2023-03-26T02:04:33.016Z,989.45
2023-03-26T02:05:32.939Z,989.41
2023-03-26T02:06:32.971Z,989.44
2023-03-26T02:07:32.939Z,989.39
2023-03-26T02:08:32.954Z,989.43
2023-03-26T02:09:32.919Z,989.38
2023-03-26T02:10:32.940Z,989.43
2023-03-26T02:11:35.973Z,989.40
2023-03-26T02:12:32.865Z,989.45
2023-03-26T02:13:32.853Z,989.40
2023-03-26T02:14:32.839Z,989.40
2023-03-26T02:15:32.857Z,989.38
2023-03-26T02:16:33.023Z,989.35
2023-03-26T02:17:32.878Z,989.36
2023-03-26T02:18:32.809Z,989.34
2023-03-26T02:19:32.783Z,989.38
2023-03-26T02:20:32.797Z,989.33
2023-03-26T02:21:32.776Z,989.34
2023-03-26T02:22:32.774Z,989.31
2023-03-26T02:23:32.737Z,989.33
2023-03-26T02:24:32.759Z,989.35
2023-03-26T02:25:32.715Z,989.36
2023-03-26T02:26:32.742Z,989.43
2023-03-26T02:27:32.722Z,989.38
2023-03-26T02:28:32.706Z,989.51
2023-03-26T02:29:32.654Z,989.47
2023-03-26T02:30:32.677Z,989.48
2023-03-26T02:31:32.688Z,989.45
2023-03-26T02:32:32.681Z,989.44
2023-03-26T02:33:32.621Z,989.46
2023-03-26T02:34:32.618Z,989.46
2023-03-26T02:35:32.679Z,989.42
2023-03-26T02:36:32.732Z,989.45
2023-03-26T02:37:32.598Z,989.43
2023-03-26T02:38:32.548Z,989.43
2023-03-26T02:39:32.556Z,989.44
2023-03-26T02:40:32.546Z,989.44
2023-03-26T02:41:32.549Z,989.48
2023-03-26T02:42:32.568Z,989.45
2023-03-26T02:43:32.525Z,989.48
2023-03-26T02:44:32.539Z,989.44
2023-03-26T02:45:32.565Z,989.42
2023-03-26T02:46:32.550Z,989.40
2023-03-26T02:47:32.575Z,989.43
2023-03-26T02:48:32.489Z,989.36
2023-03-26T02:49:32.444Z,989.41
2023-03-26T02:50:32.422Z,989.42
2023-03-26T02:51:32.433Z,989.37
2023-03-26T02:52:32.437Z,989.35
2023-03-26T02:53:32.426Z,989.31
2023-03-26T02:54:32.401Z,989.27
2023-03-26T02:55:32.381Z,989.27
2023-03-26T02:56:32.450Z,989.27
2023-03-26T02:57:32.349Z,989.25
2023-03-26T02:58:32.344Z,989.30
2023-03-26T02:59:32.468Z,989.26
2023-03-26T03:00:32.318Z,989.28
2023-03-26T03:01:32.377Z,989.27
2023-03-26T03:02:32.317Z,989.32
2023-03-26T03:03:32.320Z,989.28
2023-03-26T03:04:32.284Z,989.27
2023-03-26T03:05:32.286Z,989.30
2023-03-26T03:06:32.232Z,989.31
2023-03-26T03:07:32.286Z,989.29
2023-03-26T03:08:32.243Z,989.31
2023-03-26T03:09:32.223Z,989.23
2023-03-26T03:10:32.201Z,989.17
2023-03-26T03:11:32.192Z,989.22
2023-03-26T03:12:32.184Z,989.19
2023-03-26T03:13:32.186Z,989.24
2023-03-26T03:14:32.189Z,989.23
2023-03-26T03:15:32.146Z,989.20
2023-03-26T03:16:32.270Z,989.15
2023-03-26T03:17:32.126Z,989.11
2023-03-26T03:18:32.146Z,989.15
2023-03-26T03:19:32.111Z,989.15
2023-03-26T03:20:32.137Z,989.17
2023-03-26T03:21:32.086Z,989.11
2023-03-26T03:22:32.051Z,989.16
2023-03-26T03:23:32.094Z,989.10
2023-03-26T03:24:32.072Z,989.10
2023-03-26T03:25:32.062Z,989.14
2023-03-26T03:26:32.027Z,989.20
2023-03-26T03:27:32.017Z,989.19
2023-03-26T03:28:32.020Z,989.10
2023-03-26T03:29:32.031Z,989.13
2023-03-26T03:30:32.009Z,989.14
2023-03-26T03:31:32.046Z,989.13
2023-03-26T03:32:31.975Z,989.17
2023-03-26T03:33:31.944Z,989.20
2023-03-26T03:34:31.940Z,989.19
2023-03-26T03:35:32.016Z,989.16
2023-03-26T03:36:31.909Z,989.16
2023-03-26T03:37:31.954Z,989.18
2023-03-26T03:38:31.900Z,989.15
2023-03-26T03:39:31.883Z,989.15
2023-03-26T03:40:31.870Z,989.18
2023-03-26T03:41:31.857Z,989.18
2023-03-26T03:42:31.850Z,989.19
2023-03-26T03:43:31.856Z,989.19
2023-03-26T03:44:31.847Z,989.29
2023-03-26T03:45:31.793Z,989.24
2023-03-26T03:46:31.830Z,989.28
2023-03-26T03:47:31.842Z,989.31
2023-03-26T03:48:31.798Z,989.27
2023-03-26T03:49:31.786Z,989.21
2023-03-26T03:50:33.707Z,989.23
2023-03-26T03:51:31.719Z,989.23
2023-03-26T03:52:31.733Z,989.22
2023-03-26T03:53:31.754Z,989.22
2023-03-26T03:54:31.712Z,989.20
2023-03-26T03:55:31.789Z,989.20
2023-03-26T03:56:31.696Z,989.25
2023-03-26T03:57:31.686Z,989.25
2023-03-26T03:58:31.651Z,989.22
2023-03-26T03:59:31.695Z,989.25
2023-03-26T04:00:31.638Z,989.23
2023-03-26T04:01:31.625Z,989.29
2023-03-26T04:02:31.779Z,989.22
2023-03-26T04:03:34.049Z,989.23
2023-03-26T04:04:31.607Z,989.28
2023-03-26T04:05:31.617Z,989.29
2023-03-26T04:06:31.558Z,989.25
2023-03-26T04:07:31.592Z,989.30
2023-03-26T04:08:31.568Z,989.27
2023-03-26T04:09:31.580Z,989.27
2023-03-26T04:10:31.518Z,989.29
2023-03-26T04:11:31.490Z,989.23
2023-03-26T04:12:31.488Z,989.22
2023-03-26T04:13:31.533Z,989.26
2023-03-26T04:14:31.485Z,989.24
2023-03-26T04:15:31.509Z,989.18
2023-03-26T04:16:31.466Z,989.22
2023-03-26T04:17:31.528Z,989.20
2023-03-26T04:18:31.412Z,989.18
2023-03-26T04:19:31.432Z,989.20
2023-03-26T04:20:31.422Z,989.15
2023-03-26T04:21:31.403Z,989.15
2023-03-26T04:22:31.420Z,989.15
2023-03-26T04:23:31.389Z,989.20
2023-03-26T04:24:31.366Z,989.18
2023-03-26T04:25:31.359Z,989.23
2023-03-26T04:26:31.323Z,989.17
2023-03-26T04:27:31.359Z,989.18
2023-03-26T04:28:31.333Z,989.18
2023-03-26T04:29:31.305Z,989.25
2023-03-26T04:30:31.293Z,989.24
2023-03-26T04:31:31.349Z,989.28
2023-03-26T04:32:31.296Z,989.22
2023-03-26T04:33:31.279Z,989.20
2023-03-26T04:34:31.231Z,989.27
2023-03-26T04:35:31.247Z,989.32
2023-03-26T04:36:31.233Z,989.27
2023-03-26T04:37:31.219Z,989.30
2023-03-26T04:38:31.192Z,989.27
2023-03-26T04:39:31.222Z,989.37
2023-03-26T04:40:31.208Z,989.32
2023-03-26T04:41:31.162Z,989.29
2023-03-26T04:42:31.178Z,989.36
2023-03-26T04:43:31.249Z,989.35
2023-03-26T04:44:31.159Z,989.33
2023-03-26T04:45:31.155Z,989.36
2023-03-26T04:46:31.106Z,989.34
2023-03-26T04:47:31.131Z,989.31
2023-03-26T04:48:31.071Z,989.30
2023-03-26T04:49:31.061Z,989.29
2023-03-26T04:50:31.113Z,989.28
2023-03-26T04:51:31.103Z,989.26
2023-03-26T04:52:31.040Z,989.27
2023-03-26T04:53:31.035Z,989.26
2023-03-26T04:54:31.076Z,989.29
2023-03-26T04:55:31.017Z,989.31
2023-03-26T04:56:31.055Z,989.30
2023-03-26T04:57:30.983Z,989.29
2023-03-26T04:58:30.981Z,989.24
2023-03-26T04:59:30.977Z,989.28
2023-03-26T05:00:30.982Z,989.23
2023-03-26T05:01:31.081Z,989.24
2023-03-26T05:02:30.953Z,989.21
2023-03-26T05:03:30.904Z,989.25
2023-03-26T05:04:31.000Z,989.23
2023-03-26T05:05:30.891Z,989.18
2023-03-26T05:06:30.920Z,989.20
2023-03-26T05:07:31.090Z,989.22
2023-03-26T05:08:30.839Z,989.25
2023-03-26T05:09:30.868Z,989.23
2023-03-26T05:10:30.841Z,989.24
2023-03-26T05:11:30.846Z,989.22
2023-03-26T05:12:30.831Z,989.22
2023-03-26T05:13:30.830Z,989.28
2023-03-26T05:14:30.843Z,989.23
2023-03-26T05:15:30.793Z,989.17
2023-03-26T05:16:30.779Z,989.21
2023-03-26T05:17:30.848Z,989.26
2023-03-26T05:18:30.863Z,989.20
2023-03-26T05:19:30.713Z,989.22
2023-03-26T05:20:30.740Z,989.22
2023-03-26T05:21:30.734Z,989.17
2023-03-26T05:22:30.694Z,989.24
2023-03-26T05:23:30.689Z,989.19
2023-03-26T05:24:30.663Z,989.18
2023-03-26T05:25:30.706Z,989.15
2023-03-26T05:26:30.679Z,989.17
2023-03-26T05:27:30.652Z,989.10
2023-03-26T05:28:30.621Z,989.15
2023-03-26T05:29:30.626Z,989.08
2023-03-26T05:30:30.618Z,989.09
2023-03-26T05:31:30.623Z,989.05
2023-03-26T05:32:30.631Z,989.06
2023-03-26T05:33:30.742Z,989.07
2023-03-26T05:34:30.557Z,989.04
2023-03-26T05:35:30.600Z,988.97
2023-03-26T05:36:30.585Z,989.00
2023-03-26T05:37:30.527Z,989.04
2023-03-26T05:38:30.526Z,989.05
2023-03-26T05:39:30.493Z,989.06
2023-03-26T05:40:30.666Z,989.05
2023-03-26T05:41:30.480Z,989.01
2023-03-26T05:42:30.507Z,989.02
2023-03-26T05:43:30.466Z,989.04
2023-03-26T05:44:30.466Z,989.06
2023-03-26T05:45:30.443Z,988.95
2023-03-26T05:46:30.516Z,988.95
2023-03-26T05:47:30.520Z,989.01
2023-03-26T05:48:30.402Z,988.95
2023-03-26T05:49:30.406Z,988.95
2023-03-26T05:50:30.398Z,989.00
2023-03-26T05:51:30.413Z,988.92
2023-03-26T05:52:30.377Z,988.86
2023-03-26T05:53:30.334Z,988.86
2023-03-26T05:54:30.323Z,988.87
2023-03-26T05:55:30.329Z,988.83
2023-03-26T05:56:30.366Z,988.83
2023-03-26T05:57:30.361Z,988.83
2023-03-26T05:58:30.321Z,988.81
2023-03-26T05:59:30.329Z,988.79
2023-03-26T06:00:30.265Z,988.83
2023-03-26T06:01:30.286Z,988.79
2023-03-26T06:02:30.311Z,988.79
2023-03-26T06:03:30.348Z,988.75
2023-03-26T06:04:30.302Z,988.70
2023-03-26T06:05:30.212Z,988.67
2023-03-26T06:06:32.294Z,988.67
2023-03-26T06:07:30.211Z,988.65
2023-03-26T06:08:30.228Z,988.66
2023-03-26T06:09:30.165Z,988.67
2023-03-26T06:10:30.136Z,988.66
2023-03-26T06:11:30.158Z,988.65
2023-03-26T06:12:30.117Z,988.67
2023-03-26T06:13:30.175Z,988.66
2023-03-26T06:14:30.125Z,988.69
2023-03-26T06:15:30.114Z,988.67
2023-03-26T06:16:30.093Z,988.65
2023-03-26T06:17:30.174Z,988.70
2023-03-26T06:18:30.104Z,988.74
2023-03-26T06:19:30.093Z,988.75
2023-03-26T06:20:30.045Z,988.77
2023-03-26T06:21:30.014Z,988.72
2023-03-26T06:22:30.012Z,988.71
2023-03-26T06:23:30.006Z,988.74
2023-03-26T06:24:30.026Z,988.74
2023-03-26T06:25:29.996Z,988.67
2023-03-26T06:26:29.951Z,988.73
2023-03-26T06:27:29.950Z,988.66
2023-03-26T06:28:30.013Z,988.61
2023-03-26T06:29:29.948Z,988.57
2023-03-26T06:30:30.032Z,988.56
2023-03-26T06:31:29.992Z,988.55
2023-03-26T06:32:29.946Z,988.52
2023-03-26T06:33:29.890Z,988.47
2023-03-26T06:34:29.898Z,988.52
2023-03-26T06:35:29.960Z,988.48
2023-03-26T06:36:29.872Z,988.48
2023-03-26T06:37:29.866Z,988.52
2023-03-26T06:38:29.829Z,988.49
2023-03-26T06:39:29.859Z,988.54
2023-03-26T06:40:29.805Z,988.52
2023-03-26T06:41:29.810Z,988.51
2023-03-26T06:43:06.405Z,988.53
2023-03-26T06:43:30.769Z,988.53
2023-03-26T06:44:29.766Z,988.49
2023-03-26T06:45:29.762Z,988.56
2023-03-26T06:46:29.796Z,988.53
2023-03-26T06:47:29.792Z,988.51
2023-03-26T06:48:29.732Z,988.50
2023-03-26T06:49:29.712Z,988.48
2023-03-26T06:50:29.694Z,988.54
2023-03-26T06:51:29.709Z,988.51
2023-03-26T06:52:29.722Z,988.43
2023-03-26T06:53:29.685Z,988.46
2023-03-26T06:54:29.766Z,988.49
2023-03-26T06:55:29.638Z,988.42
2023-03-26T06:56:29.661Z,988.43
2023-03-26T06:57:29.659Z,988.46
2023-03-26T06:58:29.857Z,988.45
2023-03-26T06:59:29.579Z,988.45
2023-03-26T07:00:29.587Z,988.45
2023-03-26T07:01:29.632Z,988.46
2023-03-26T07:02:29.619Z,988.51
2023-03-26T07:03:29.585Z,988.49
2023-03-26T07:04:29.609Z,988.47
2023-03-26T07:05:29.644Z,988.45
2023-03-26T07:06:29.575Z,988.46
2023-03-26T07:07:29.528Z,988.43
2023-03-26T07:08:29.491Z,988.40
2023-03-26T07:09:29.519Z,988.40
2023-03-26T07:10:29.502Z,988.44
2023-03-26T07:11:29.530Z,988.43
2023-03-26T07:12:29.451Z,988.37
2023-03-26T07:13:29.449Z,988.43
2023-03-26T07:14:29.408Z,988.34
2023-03-26T07:15:29.468Z,988.37
2023-03-26T07:16:29.416Z,988.34
2023-03-26T07:17:29.423Z,988.30
2023-03-26T07:18:29.380Z,988.28
2023-03-26T07:19:29.390Z,988.29
2023-03-26T07:20:29.415Z,988.24
2023-03-26T07:21:29.369Z,988.22
2023-03-26T07:22:29.351Z,988.18
2023-03-26T07:23:29.328Z,988.19
2023-03-26T07:24:29.320Z,988.20
2023-03-26T07:25:29.331Z,988.18
2023-03-26T07:26:29.369Z,988.24
2023-03-26T07:27:29.290Z,988.17
2023-03-26T07:28:29.292Z,988.10
2023-03-26T07:29:29.265Z,988.15
2023-03-26T07:30:29.570Z,988.14
2023-03-26T07:31:29.257Z,988.09
2023-03-26T07:32:29.259Z,988.14
2023-03-26T07:33:29.249Z,988.07
2023-03-26T07:34:29.205Z,988.08
2023-03-26T07:35:29.216Z,988.10
2023-03-26T07:36:29.216Z,988.00
2023-03-26T07:37:29.200Z,988.02
2023-03-26T07:38:29.147Z,987.99
2023-03-26T07:39:29.175Z,987.98
2023-03-26T07:40:29.133Z,987.95
2023-03-26T07:41:29.126Z,987.96
2023-03-26T07:42:29.109Z,987.97
2023-03-26T07:43:29.103Z,987.95
2023-03-26T07:44:29.078Z,987.94
2023-03-26T07:45:29.179Z,987.90
2023-03-26T07:46:29.093Z,987.97
2023-03-26T07:47:29.170Z,987.98
2023-03-26T07:48:29.068Z,987.94
2023-03-26T07:49:29.022Z,987.93
2023-03-26T07:50:29.030Z,987.90
2023-03-26T07:51:28.998Z,987.88
2023-03-26T07:52:29.026Z,987.87
2023-03-26T07:53:28.979Z,987.87
2023-03-26T07:54:28.982Z,987.84
2023-03-26T07:55:28.978Z,987.85
2023-03-26T07:56:28.996Z,987.85
2023-03-26T07:57:28.984Z,987.87
2023-03-26T07:58:28.950Z,987.84
2023-03-26T07:59:28.921Z,987.81
2023-03-26T08:00:28.950Z,987.77
2023-03-26T08:01:28.889Z,987.75
2023-03-26T08:02:28.977Z,987.77
2023-03-26T08:03:29.093Z,987.81
2023-03-26T08:04:28.976Z,987.75
2023-03-26T08:05:28.857Z,987.76
2023-03-26T08:06:28.868Z,987.70
2023-03-26T08:07:28.854Z,987.72
2023-03-26T08:08:28.884Z,987.73
2023-03-26T08:09:28.804Z,987.73
2023-03-26T08:10:28.825Z,987.71
2023-03-26T08:11:28.786Z,987.65
2023-03-26T08:12:28.793Z,987.67
2023-03-26T08:13:28.767Z,987.59
2023-03-26T08:14:28.772Z,987.63
2023-03-26T08:15:28.763Z,987.61
2023-03-26T08:16:28.715Z,987.56
2023-03-26T08:17:30.641Z,987.58
2023-03-26T08:18:28.696Z,987.57
2023-03-26T08:19:28.686Z,987.50
2023-03-26T08:20:28.692Z,987.45
2023-03-26T08:21:28.682Z,987.42
2023-03-26T08:22:28.695Z,987.43
2023-03-26T08:23:28.703Z,987.36
2023-03-26T08:24:28.619Z,987.37
2023-03-26T08:25:28.655Z,987.34
2023-03-26T08:26:28.627Z,987.35
2023-03-26T08:27:28.593Z,987.38
2023-03-26T08:28:28.636Z,987.34
2023-03-26T08:29:28.620Z,987.35
2023-03-26T08:30:28.564Z,987.31
2023-03-26T08:31:28.603Z,987.26
2023-03-26T08:32:28.590Z,987.31
2023-03-26T08:33:28.522Z,987.28
2023-03-26T08:34:28.532Z,987.24
2023-03-26T08:35:28.648Z,987.25
2023-03-26T08:36:28.478Z,987.18
2023-03-26T08:37:28.520Z,987.22
2023-03-26T08:38:28.456Z,987.24
2023-03-26T08:39:28.501Z,987.20
2023-03-26T08:40:28.436Z,987.16
2023-03-26T08:41:28.426Z,987.15
2023-03-26T08:42:28.480Z,987.16
2023-03-26T08:43:28.430Z,987.08
2023-03-26T08:44:28.405Z,987.11
2023-03-26T08:45:28.409Z,987.14
2023-03-26T08:46:28.404Z,987.13
2023-03-26T08:47:28.393Z,987.09
2023-03-26T08:48:28.377Z,987.07
2023-03-26T08:49:29.651Z,987.12
2023-03-26T08:50:28.339Z,987.08
2023-03-26T08:51:28.346Z,987.07
2023-03-26T08:52:28.339Z,987.07
2023-03-26T08:53:28.331Z,987.09
2023-03-26T08:54:28.308Z,987.07
2023-03-26T08:55:28.297Z,987.09
2023-03-26T08:56:28.318Z,987.04
2023-03-26T08:57:28.317Z,987.09
2023-03-26T08:58:28.276Z,987.09
2023-03-26T08:59:28.237Z,987.03
2023-03-26T09:00:28.232Z,987.06
2023-03-26T09:01:28.284Z,987.06
2023-03-26T09:02:28.222Z,987.05
2023-03-26T09:03:28.262Z,986.96
2023-03-26T09:04:28.165Z,986.98
2023-03-26T09:05:28.173Z,986.96
2023-03-26T09:06:28.144Z,986.95
2023-03-26T09:07:28.195Z,986.92
2023-03-26T09:08:30.054Z,986.94
2023-03-26T09:09:28.150Z,986.90
2023-03-26T09:10:28.135Z,986.87
2023-03-26T09:11:28.117Z,986.86
2023-03-26T09:12:28.122Z,986.83
2023-03-26T09:13:28.063Z,986.83
2023-03-26T09:14:28.083Z,986.82
2023-03-26T09:15:28.085Z,986.77
2023-03-26T09:16:28.121Z,986.79
2023-03-26T09:17:28.086Z,986.76
2023-03-26T09:18:28.018Z,986.77
2023-03-26T09:19:28.030Z,986.78
2023-03-26T09:20:28.040Z,986.72
2023-03-26T09:21:28.001Z,986.70
2023-03-26T09:22:28.004Z,986.71
2023-03-26T09:23:27.992Z,986.64
2023-03-26T09:24:27.960Z,986.65
2023-03-26T09:25:27.952Z,986.64
2023-03-26T09:26:27.999Z,986.58
2023-03-26T09:27:27.929Z,986.61
2023-03-26T09:28:27.935Z,986.65
2023-03-26T09:29:27.887Z,986.62
2023-03-26T09:30:27.901Z,986.61
2023-03-26T09:31:27.937Z,986.61
2023-03-26T09:32:27.947Z,986.63
2023-03-26T09:33:27.855Z,986.63
2023-03-26T09:34:27.843Z,986.62
2023-03-26T09:35:27.900Z,986.59
2023-03-26T09:36:27.852Z,986.60
2023-03-26T09:37:27.800Z,986.56
2023-03-26T09:38:27.850Z,986.60
2023-03-26T09:39:27.801Z,986.60
2023-03-26T09:40:27.760Z,986.55
2023-03-26T09:41:27.812Z,986.53
2023-03-26T09:42:27.793Z,986.55
2023-03-26T09:43:27.727Z,986.55
2023-03-26T09:44:27.768Z,986.55
2023-03-26T09:45:27.739Z,986.50
2023-03-26T09:46:27.746Z,986.54
2023-03-26T09:47:27.732Z,986.51
2023-03-26T09:48:27.668Z,986.48
2023-03-26T09:49:27.687Z,986.54
2023-03-26T09:50:27.680Z,986.51
2023-03-26T09:51:27.802Z,986.51
2023-03-26T09:52:27.684Z,986.51
2023-03-26T09:53:27.645Z,986.52
2023-03-26T09:54:27.609Z,986.45
2023-03-26T09:55:27.609Z,986.52
2023-03-26T09:56:27.618Z,986.46
2023-03-26T09:57:27.660Z,986.53
2023-03-26T09:58:27.582Z,986.45
2023-03-26T09:59:27.588Z,986.45
2023-03-26T10:00:27.534Z,986.42
2023-03-26T10:01:27.654Z,986.46
2023-03-26T10:02:47.089Z,986.42
2023-03-26T10:03:28.598Z,986.36
2023-03-26T10:04:27.607Z,986.35
2023-03-26T10:05:27.481Z,986.33
2023-03-26T10:06:27.477Z,986.29
2023-03-26T10:07:27.478Z,986.27
2023-03-26T10:08:27.949Z,986.26
2023-03-26T10:09:27.493Z,986.28
2023-03-26T10:10:27.428Z,986.22
2023-03-26T10:11:27.421Z,986.28
2023-03-26T10:12:27.407Z,986.24
2023-03-26T10:13:27.442Z,986.24
2023-03-26T10:14:27.421Z,986.23
2023-03-26T10:15:27.385Z,986.23
2023-03-26T10:16:27.402Z,986.23
2023-03-26T10:17:27.374Z,986.28
2023-03-26T10:18:30.166Z,986.23
2023-03-26T10:19:27.591Z,986.19
2023-03-26T10:20:27.326Z,986.17
2023-03-26T10:21:28.501Z,986.11
2023-03-26T10:22:27.318Z,986.12
2023-03-26T10:23:27.304Z,986.13
2023-03-26T10:24:27.343Z,986.06
2023-03-26T10:25:27.302Z,986.04
2023-03-26T10:26:27.264Z,986.04
2023-03-26T10:27:27.312Z,986.03
2023-03-26T10:28:27.237Z,986.02
2023-03-26T10:29:27.241Z,985.97
2023-03-26T10:30:27.293Z,985.92
2023-03-26T10:31:27.324Z,985.99
2023-03-26T10:32:27.213Z,985.99
2023-03-26T10:33:27.157Z,985.97
2023-03-26T10:34:29.310Z,986.02
2023-03-26T10:35:27.300Z,985.95
2023-03-26T10:36:27.130Z,985.90
2023-03-26T10:37:27.130Z,985.99
2023-03-26T10:38:27.135Z,985.95
2023-03-26T10:39:38.385Z,985.92
2023-03-26T10:40:28.114Z,985.90
2023-03-26T10:41:27.054Z,985.90
2023-03-26T10:42:27.062Z,985.94
2023-03-26T10:43:27.068Z,985.92
2023-03-26T10:44:27.046Z,985.90
2023-03-26T10:45:27.068Z,985.91
2023-03-26T10:46:27.033Z,985.90
2023-03-26T10:47:27.077Z,985.91
2023-03-26T10:48:27.042Z,986.00
2023-03-26T10:49:27.021Z,985.96
2023-03-26T10:50:26.960Z,985.99
2023-03-26T10:51:26.975Z,985.93
2023-03-26T10:52:26.957Z,985.94
2023-03-26T10:53:26.978Z,985.93
2023-03-26T10:54:26.954Z,985.98
2023-03-26T10:55:26.908Z,985.94
2023-03-26T10:56:26.903Z,985.94
2023-03-26T10:57:26.898Z,985.94
2023-03-26T10:58:26.880Z,985.91
2023-03-26T10:59:27.086Z,985.95
2023-03-26T11:00:26.929Z,985.93
2023-03-26T11:01:26.883Z,985.92
2023-03-26T11:02:30.460Z,985.97
2023-03-26T11:03:26.810Z,985.91
2023-03-26T11:04:26.808Z,985.93
2023-03-26T11:05:26.946Z,985.98
2023-03-26T11:06:26.835Z,986.02
2023-03-26T11:07:26.845Z,986.02
2023-03-26T11:08:31.610Z,986.01
2023-03-26T11:09:27.769Z,986.08
2023-03-26T11:10:26.737Z,986.05
2023-03-26T11:11:26.760Z,986.03
2023-03-26T11:12:28.140Z,986.04
2023-03-26T11:13:26.723Z,986.07
2023-03-26T11:14:34.416Z,986.04
2023-03-26T11:15:27.776Z,986.00
2023-03-26T11:16:26.693Z,986.08
2023-03-26T11:17:40.582Z,986.06
2023-03-26T11:18:27.760Z,986.03
2023-03-26T11:19:26.663Z,985.97
2023-03-26T11:20:26.664Z,986.02
2023-03-26T11:21:26.660Z,986.09
2023-03-26T11:22:26.632Z,986.10
2023-03-26T11:23:26.621Z,986.07
2023-03-26T11:24:26.618Z,986.02
2023-03-26T11:25:26.617Z,986.09
2023-03-26T11:26:26.601Z,986.11
2023-03-26T11:27:26.655Z,986.08
2023-03-26T11:28:26.622Z,986.11
2023-03-26T11:29:32.670Z,986.06
2023-03-26T11:30:27.544Z,986.13
2023-03-26T11:31:26.554Z,986.09
2023-03-26T11:32:26.515Z,986.12
2023-03-26T11:33:26.542Z,986.16
2023-03-26T11:34:27.544Z,986.15
2023-03-26T11:35:39.528Z,986.14
2023-03-26T11:36:27.496Z,986.15
2023-03-26T11:37:26.467Z,986.11
2023-03-26T11:38:26.453Z,986.15
2023-03-26T11:39:26.451Z,986.15
2023-03-26T11:40:26.457Z,986.11
2023-03-26T11:41:26.387Z,986.15
2023-03-26T11:42:26.409Z,986.19
2023-03-26T11:43:26.378Z,986.16
2023-03-26T11:44:26.410Z,986.17
2023-03-26T11:45:26.404Z,986.11
2023-03-26T11:46:26.388Z,986.13
2023-03-26T11:47:26.360Z,986.15
2023-03-26T11:48:26.301Z,986.08
2023-03-26T11:49:26.318Z,986.10
2023-03-26T11:50:26.371Z,986.11
2023-03-26T11:51:26.296Z,986.11
2023-03-26T11:52:26.317Z,986.11
2023-03-26T11:53:26.309Z,986.08
2023-03-26T11:54:26.254Z,986.12
2023-03-26T11:55:26.257Z,986.13
2023-03-26T11:56:26.292Z,986.05
2023-03-26T11:57:26.234Z,986.09
2023-03-26T11:58:26.257Z,986.11
2023-03-26T11:59:26.174Z,986.08
2023-03-26T12:00:26.222Z,986.08
2023-03-26T12:01:26.184Z,986.08
2023-03-26T12:02:26.320Z,986.09
2023-03-26T12:03:26.138Z,986.07
2023-03-26T12:04:26.152Z,986.05
2023-03-26T12:05:26.144Z,986.07
2023-03-26T12:06:27.282Z,986.08
2023-03-26T12:07:26.102Z,986.07
2023-03-26T12:08:26.152Z,986.06
2023-03-26T12:09:26.074Z,986.02
2023-03-26T12:10:26.091Z,986.02
2023-03-26T12:11:26.061Z,986.08
2023-03-26T12:12:26.058Z,986.01
2023-03-26T12:13:26.047Z,986.03
2023-03-26T12:14:26.007Z,985.97
2023-03-26T12:15:26.011Z,985.98
2023-03-26T12:16:26.027Z,985.99
2023-03-26T12:17:31.562Z,986.03
2023-03-26T12:18:27.020Z,986.02
2023-03-26T12:19:25.971Z,986.02
2023-03-26T12:20:26.002Z,985.98
2023-03-26T12:21:25.951Z,985.99
2023-03-26T12:22:25.908Z,985.97
2023-03-26T12:23:25.996Z,985.98
2023-03-26T12:24:25.906Z,985.98
2023-03-26T12:25:25.914Z,985.96
2023-03-26T12:26:25.902Z,985.94
2023-03-26T12:27:25.855Z,985.96
2023-03-26T12:28:25.843Z,985.93